Lone Rock, WI (53556)

09:28 PM CDT die 31o October, anno 2014 (GMT -0500)
Tri-County Regional | Change Station
CLOSE
Current Station
Airport
Location: Lone Rock,
Elevation: 719 ft
Nearby Weather Stations

Elev 719 ft 43.21 °N, 90.18 °W | Updated 32 minutes ago

Clear
Serena
35 °F
Feels Like 31 °F
N
5
Ventus Variabilis Ventus from Aquilo

Hodie
High -- | Low -- °F
--% Chance of Precip.
Yesterday
High -- | Low -- °F
Precip. -- in
7:34 AM 5:53 PM
First Quarter, 61% visible
Pressio 30.46 in
Visibilitas 10.0 milia passuum
Clouds Serena
Frigus Venti 31 °F
Frigus in quo Ros apparet 16 °F
Umor 46%
Rainfall 0.00 in
Snow Depth Not available.
UV 0 out of 12
Pollen .10 out of 12
Air Quality Not available.
Flu Activity Not available.
METAR KLNR 010156Z AUTO 01004KT 10SM CLR 02/M09 A3045 RMK AO2 SLP314 T00171089

More Conditions Fewer Conditions

Pressio 30.46 in
Visibilitas 10.0 milia passuum
Clouds Serena
Frigus Venti 31 °F
Frigus in quo Ros apparet 16 °F
Umor 46%
Rainfall 0.00 in
Snow Depth Not available.
UV 0 out of 12
Pollen .10 out of 12
Air Quality Not available.
Flu Activity Not available.
METAR KLNR 010156Z AUTO 01004KT 10SM CLR 02/M09 A3045 RMK AO2 SLP314 T00171089

More Conditions Fewer Conditions

10-Day Weather Forecast

Almanac

Astronomy

Oct. 31, 2014 Rise Set
Actual Time
Civil Twilight
Nautical Twilight
Astronomical Twilight
Moon
Length Of Visible Light
Length of Day
Tomorrow will be .
, % of the Moon is Illuminated

Today's Extremes

State Highs State Lows

Community

WunderPhotos

Upload Photos

1,766,823 photos uploaded!

WunderBlogs® & News

Nearby

Air Quality

  Air Quality AQ Index Pollutant
Not available.

Snow Depth

Station Depth Elevation

Earthquake Activity

City Distance Mag. Time & Date
Minimum magnitude displayed is 2.5.

Coastal Water Temperatures

Locus Calor

Nearby Weather Stations